Terminal Aerodrome Forecast
Issued by NWS

Home | Current Version | Previous Version | Text Only | Print | Product List | Glossary On
Versions: 1 2 3 4 5 6 7 8 9 10 11 12 13 14 15 16 17 18 19 20 21 22 23 24 25 26 27
063
FTUS41 KBUF 302327
TAFJHW
TAF
KJHW 302327Z 0100/0124 18006KT P6SM BKN120
     FM010300 16008KT P6SM BKN250 WS020/20040KT
     FM010600 17010KT P6SM BKN100 WS020/20045KT
     FM011300 18014G20KT P6SM OVC070
     FM011500 18016G23KT P6SM VCSH OVC050
     FM011900 19014KT 4SM SHRA VCTS OVC025CB
     FM012200 21011KT P6SM VCSH OVC060
      AMD LTD TO CLD VIS AND WIND=

USA.gov is the U.S. government's official web portal to all federal, state and local government web resources and services.